createdAt,value
2022-07-29T00:01:20.278Z,56.60
2022-07-29T00:03:49.865Z,56.70
2022-07-29T00:06:18.357Z,56.40
2022-07-29T00:08:46.354Z,56.40
2022-07-29T00:11:14.419Z,56.30
2022-07-29T00:13:44.451Z,56.50
2022-07-29T00:16:16.007Z,56.30
2022-07-29T00:18:44.017Z,56.80
2022-07-29T00:21:13.379Z,57.20
2022-07-29T00:23:41.435Z,56.70
2022-07-29T00:26:09.435Z,56.90
2022-07-29T00:28:37.446Z,56.70
2022-07-29T00:31:05.529Z,56.90
2022-07-29T00:33:33.592Z,57.20
2022-07-29T00:36:00.616Z,57.10
2022-07-29T00:38:29.997Z,56.50
2022-07-29T00:40:58.034Z,57.00
2022-07-29T00:43:26.091Z,57.50
2022-07-29T00:45:54.191Z,56.90
2022-07-29T00:48:22.253Z,57.10
2022-07-29T00:50:51.889Z,57.20
2022-07-29T00:53:21.324Z,57.00
2022-07-29T00:55:52.392Z,57.00
2022-07-29T00:58:20.570Z,57.30
2022-07-29T01:00:48.731Z,57.50
2022-07-29T01:03:16.911Z,57.30
2022-07-29T01:05:50.222Z,57.00
2022-07-29T01:08:20.838Z,57.30
2022-07-29T01:10:51.265Z,57.50
2022-07-29T01:13:19.931Z,58.10
2022-07-29T01:15:53.819Z,58.60
2022-07-29T01:18:30.523Z,58.60
2022-07-29T01:21:20.021Z,58.20
2022-07-29T01:24:08.918Z,58.30
2022-07-29T01:26:51.288Z,58.30
2022-07-29T01:29:29.794Z,58.50
2022-07-29T01:32:09.302Z,58.00
2022-07-29T01:34:59.777Z,58.90
2022-07-29T01:37:32.641Z,58.80
2022-07-29T01:40:02.918Z,59.10
2022-07-29T01:42:36.263Z,58.90
2022-07-29T01:45:11.770Z,58.50
2022-07-29T01:47:44.871Z,57.90
2022-07-29T01:50:15.123Z,58.30
2022-07-29T01:52:51.649Z,58.20
2022-07-29T01:55:22.157Z,58.40
2022-07-29T01:57:51.075Z,58.60
2022-07-29T02:00:21.036Z,57.70
2022-07-29T02:02:51.182Z,58.00
2022-07-29T02:05:22.584Z,58.40
2022-07-29T02:07:51.659Z,58.50
2022-07-29T02:10:25.641Z,59.10
2022-07-29T02:12:56.135Z,59.40
2022-07-29T02:15:26.650Z,60.30
2022-07-29T02:18:00.306Z,60.60
2022-07-29T02:20:29.866Z,60.50
2022-07-29T02:23:00.302Z,61.20
2022-07-29T02:25:37.232Z,61.10
2022-07-29T02:28:08.561Z,61.40
2022-07-29T02:30:41.256Z,61.50
2022-07-29T02:33:11.973Z,62.20
2022-07-29T02:35:42.293Z,62.50
2022-07-29T02:38:28.806Z,62.00
2022-07-29T02:40:58.880Z,62.50
2022-07-29T02:43:27.864Z,62.20
2022-07-29T02:45:58.882Z,62.50
2022-07-29T02:48:34.364Z,62.90
2022-07-29T02:51:08.460Z,63.40
2022-07-29T02:53:38.684Z,63.30
2022-07-29T02:56:10.607Z,63.90
2022-07-29T02:58:42.435Z,63.80
2022-07-29T03:01:21.362Z,63.70
2022-07-29T03:03:52.718Z,64.30
2022-07-29T03:06:37.646Z,65.10
2022-07-29T03:09:13.009Z,64.30
2022-07-29T03:11:50.076Z,65.20
2022-07-29T03:14:21.251Z,65.10
2022-07-29T03:16:52.912Z,64.50
2022-07-29T03:19:22.503Z,64.80
2022-07-29T03:21:50.731Z,64.80
2022-07-29T03:24:29.768Z,65.70
2022-07-29T03:26:58.928Z,66.00
2022-07-29T03:29:34.046Z,66.10
2022-07-29T03:32:08.120Z,66.80
2022-07-29T03:34:38.144Z,67.00
2022-07-29T03:37:06.862Z,67.40
2022-07-29T03:39:38.715Z,67.00
2022-07-29T03:42:08.674Z,68.30
2022-07-29T03:44:38.221Z,67.30
2022-07-29T03:47:09.377Z,66.90
2022-07-29T03:49:39.638Z,66.60
2022-07-29T03:52:08.046Z,66.00
2022-07-29T03:54:36.336Z,65.30
2022-07-29T03:57:05.614Z,65.60
2022-07-29T03:59:35.808Z,66.00
2022-07-29T04:02:05.312Z,65.70
2022-07-29T04:04:37.093Z,66.30
2022-07-29T04:07:05.893Z,65.90
2022-07-29T04:09:34.067Z,66.00
2022-07-29T04:12:04.224Z,65.40
2022-07-29T04:14:33.292Z,65.30
2022-07-29T04:17:01.484Z,64.50
2022-07-29T04:19:29.822Z,65.70
2022-07-29T04:21:59.568Z,65.80
2022-07-29T04:24:27.769Z,66.20
2022-07-29T04:26:56.026Z,65.50
2022-07-29T04:29:24.155Z,65.50
2022-07-29T04:31:52.154Z,66.00
2022-07-29T04:34:20.589Z,66.80
2022-07-29T04:36:48.884Z,66.20
2022-07-29T04:39:22.635Z,67.20
2022-07-29T04:41:52.542Z,68.00
2022-07-29T04:44:28.491Z,67.60
2022-07-29T04:46:57.949Z,67.60
2022-07-29T04:49:26.069Z,67.40
2022-07-29T04:51:54.122Z,67.20
2022-07-29T04:54:23.675Z,67.50
2022-07-29T04:56:52.739Z,68.30
2022-07-29T04:59:20.770Z,69.60
2022-07-29T05:01:48.864Z,68.90
2022-07-29T05:04:17.354Z,69.20
2022-07-29T05:06:45.598Z,68.50
2022-07-29T05:09:13.749Z,69.50
2022-07-29T05:11:43.113Z,68.90
2022-07-29T05:14:11.144Z,68.60
2022-07-29T05:16:40.438Z,69.10
2022-07-29T05:19:13.657Z,69.70
2022-07-29T05:21:42.369Z,70.50
2022-07-29T05:24:10.456Z,70.20
2022-07-29T05:26:38.561Z,70.50
2022-07-29T05:29:08.057Z,70.30
2022-07-29T05:31:56.075Z,70.80
2022-07-29T05:34:25.991Z,71.50
2022-07-29T05:36:54.357Z,71.90
2022-07-29T05:39:22.383Z,71.80
2022-07-29T05:42:11.069Z,72.20
2022-07-29T05:44:40.945Z,73.20
2022-07-29T05:47:09.023Z,72.20
2022-07-29T05:49:37.058Z,72.90
2022-07-29T05:52:05.577Z,73.00
2022-07-29T05:54:33.631Z,73.30
2022-07-29T05:57:01.623Z,74.10
2022-07-29T05:59:30.618Z,74.20
2022-07-29T06:02:00.106Z,75.10
2022-07-29T06:04:28.289Z,77.00
2022-07-29T06:06:56.291Z,79.00
2022-07-29T06:09:24.810Z,78.40
2022-07-29T06:11:53.504Z,78.60
2022-07-29T06:14:21.515Z,78.70
2022-07-29T06:16:49.581Z,77.50
2022-07-29T06:19:19.212Z,77.80
2022-07-29T06:21:48.962Z,79.60
2022-07-29T06:24:18.132Z,80.30
2022-07-29T06:26:46.569Z,81.10
2022-07-29T06:29:15.057Z,81.40
2022-07-29T06:31:43.146Z,82.00
2022-07-29T06:34:11.125Z,81.70
2022-07-29T06:36:41.142Z,83.40
2022-07-29T06:39:13.269Z,84.30
2022-07-29T06:41:41.454Z,84.20
2022-07-29T06:44:09.999Z,84.90
2022-07-29T06:46:38.063Z,85.80
2022-07-29T06:49:06.622Z,86.10
2022-07-29T06:51:35.077Z,87.50
2022-07-29T06:54:06.551Z,87.70
2022-07-29T06:56:39.061Z,88.30
2022-07-29T06:59:09.118Z,89.60
2022-07-29T07:01:39.132Z,88.70
2022-07-29T07:04:07.748Z,89.60
2022-07-29T07:06:35.737Z,86.90
2022-07-29T07:09:05.658Z,84.90
2022-07-29T07:11:33.817Z,83.70
2022-07-29T07:14:03.777Z,85.40
2022-07-29T07:16:32.680Z,84.30
2022-07-29T07:19:00.993Z,83.80
2022-07-29T07:21:30.547Z,80.80
2022-07-29T07:23:59.414Z,81.10
2022-07-29T07:26:29.719Z,79.30
2022-07-29T07:28:57.765Z,78.80
2022-07-29T07:31:25.963Z,76.40
2022-07-29T07:33:54.363Z,76.30
2022-07-29T07:36:22.689Z,76.20
2022-07-29T07:38:50.786Z,71.70
2022-07-29T07:41:18.773Z,72.50
2022-07-29T07:43:48.143Z,72.30
2022-07-29T07:46:16.643Z,72.70
2022-07-29T07:48:44.771Z,68.00
2022-07-29T07:51:12.798Z,65.20
2022-07-29T07:53:41.045Z,66.20
2022-07-29T07:56:12.184Z,62.90
2022-07-29T07:58:41.094Z,61.40
2022-07-29T08:01:11.038Z,59.90
2022-07-29T08:03:39.808Z,59.40
2022-07-29T08:06:08.054Z,57.20
2022-07-29T08:08:36.121Z,59.20
2022-07-29T08:11:09.030Z,59.40
2022-07-29T08:13:38.959Z,56.80
2022-07-29T08:16:13.839Z,56.60
2022-07-29T08:18:45.425Z,57.00
2022-07-29T08:21:14.827Z,56.60
2022-07-29T08:23:54.379Z,55.70
2022-07-29T08:26:27.042Z,54.30
2022-07-29T08:28:55.173Z,56.20
2022-07-29T08:31:23.206Z,55.30
2022-07-29T08:33:52.575Z,54.70
2022-07-29T08:36:21.939Z,54.80
2022-07-29T08:38:50.565Z,55.30
2022-07-29T08:41:20.038Z,55.20
2022-07-29T08:43:48.329Z,55.30
2022-07-29T08:46:16.765Z,56.80
2022-07-29T08:48:45.574Z,57.40
2022-07-29T08:51:17.968Z,57.50
2022-07-29T08:53:48.373Z,58.10
2022-07-29T08:56:17.756Z,59.10
2022-07-29T08:58:48.743Z,59.30
2022-07-29T09:01:36.581Z,58.50
2022-07-29T09:04:14.148Z,57.90
2022-07-29T09:06:46.878Z,58.50
2022-07-29T09:09:15.687Z,58.50
2022-07-29T09:11:44.423Z,59.20
2022-07-29T09:14:15.041Z,60.00
2022-07-29T09:16:53.531Z,61.90
2022-07-29T09:19:27.034Z,62.60
2022-07-29T09:21:59.418Z,62.50
2022-07-29T09:24:29.795Z,63.60
2022-07-29T09:26:57.807Z,63.30
2022-07-29T09:29:26.499Z,63.00
2022-07-29T09:31:56.207Z,62.80
2022-07-29T09:34:25.884Z,63.30
2022-07-29T09:36:56.744Z,63.90
2022-07-29T09:39:32.936Z,64.30
2022-07-29T09:42:04.638Z,63.60
2022-07-29T09:44:46.885Z,64.80
2022-07-29T09:47:15.149Z,64.40
2022-07-29T09:49:58.864Z,65.00
2022-07-29T09:52:29.014Z,63.80
2022-07-29T09:55:06.937Z,63.20
2022-07-29T09:57:36.958Z,59.80
2022-07-29T10:00:08.099Z,58.90
2022-07-29T10:02:37.353Z,59.60
2022-07-29T10:05:07.926Z,58.00
2022-07-29T10:07:51.880Z,59.30
2022-07-29T10:10:24.270Z,58.50
2022-07-29T10:12:54.968Z,58.40
2022-07-29T10:15:24.976Z,58.70
2022-07-29T10:17:54.132Z,57.40
2022-07-29T10:20:22.939Z,57.70
2022-07-29T10:22:54.302Z,57.80
2022-07-29T10:25:23.455Z,58.70
2022-07-29T10:27:53.289Z,56.00
2022-07-29T10:30:23.704Z,54.70
2022-07-29T10:33:07.762Z,53.20
2022-07-29T10:36:03.907Z,53.30
2022-07-29T10:39:04.346Z,52.20
2022-07-29T10:41:52.068Z,54.00
2022-07-29T10:44:23.068Z,54.70
2022-07-29T10:46:52.824Z,53.50
2022-07-29T10:49:25.211Z,51.70
2022-07-29T10:51:58.774Z,49.90
2022-07-29T10:54:48.876Z,51.60
2022-07-29T10:57:53.692Z,50.70
2022-07-29T11:00:33.071Z,50.50
2022-07-29T11:03:04.710Z,50.70
2022-07-29T11:05:55.414Z,51.00
2022-07-29T11:08:28.359Z,49.90
2022-07-29T11:11:33.541Z,49.70
2022-07-29T11:14:04.668Z,49.40
2022-07-29T11:17:00.496Z,50.40
2022-07-29T11:19:30.617Z,49.90
2022-07-29T11:21:59.740Z,47.90
2022-07-29T11:24:34.969Z,48.10
2022-07-29T11:27:14.683Z,48.90
2022-07-29T11:30:01.108Z,49.00
2022-07-29T11:32:38.791Z,50.60
2022-07-29T11:35:17.022Z,49.60
2022-07-29T11:37:55.947Z,48.60
2022-07-29T11:40:26.008Z,50.30
2022-07-29T11:42:55.169Z,50.90
2022-07-29T11:45:42.563Z,48.80
2022-07-29T11:48:28.982Z,48.80
2022-07-29T11:50:59.167Z,50.60
2022-07-29T11:53:29.246Z,49.80
2022-07-29T11:56:02.759Z,49.10
2022-07-29T11:58:32.523Z,50.30
2022-07-29T12:04:06.746Z,48.00
2022-07-29T12:06:35.083Z,48.80
2022-07-29T12:07:03.784Z,47.60
2022-07-29T12:09:14.379Z,49.60
2022-07-29T12:11:45.066Z,50.50
2022-07-29T12:14:27.988Z,49.80
2022-07-29T12:16:58.040Z,50.70
2022-07-29T12:19:26.854Z,50.70
2022-07-29T12:21:59.733Z,50.90
2022-07-29T12:24:44.918Z,52.00
2022-07-29T12:27:14.882Z,54.20
2022-07-29T12:29:47.771Z,53.50
2022-07-29T12:32:19.753Z,53.20
2022-07-29T12:34:48.405Z,51.30
2022-07-29T12:37:16.612Z,51.00
2022-07-29T12:39:45.063Z,48.30
2022-07-29T12:42:15.023Z,48.00
2022-07-29T12:44:49.002Z,48.70
2022-07-29T12:47:20.019Z,50.30
2022-07-29T12:49:48.921Z,49.30
2022-07-29T12:52:30.770Z,49.50
2022-07-29T12:55:00.151Z,49.70
2022-07-29T12:57:28.759Z,49.70
2022-07-29T13:00:10.299Z,50.80
2022-07-29T13:02:41.692Z,52.60
2022-07-29T13:05:11.481Z,51.80
2022-07-29T13:07:55.628Z,54.60
2022-07-29T13:10:26.082Z,53.70
2022-07-29T13:13:05.182Z,55.80
2022-07-29T13:15:33.440Z,56.90
2022-07-29T13:18:03.029Z,59.40
2022-07-29T13:20:31.687Z,58.50
2022-07-29T13:23:00.954Z,60.70
2022-07-29T13:25:30.908Z,60.20
2022-07-29T13:27:59.236Z,64.00
2022-07-29T13:30:27.838Z,65.50
2022-07-29T13:32:56.496Z,64.30
2022-07-29T13:35:25.954Z,67.80
2022-07-29T13:37:54.089Z,68.90
2022-07-29T13:40:22.135Z,71.60
2022-07-29T13:42:50.288Z,71.40
2022-07-29T13:45:18.431Z,71.10
2022-07-29T13:47:49.379Z,73.90
2022-07-29T13:50:17.727Z,75.50
2022-07-29T13:52:49.219Z,76.10
2022-07-29T13:55:17.206Z,77.80
2022-07-29T13:57:45.224Z,75.90
2022-07-29T14:00:14.664Z,76.30
2022-07-29T14:02:42.693Z,76.70
2022-07-29T14:05:11.759Z,76.80
2022-07-29T14:07:40.705Z,80.20
2022-07-29T14:10:11.073Z,79.50
2022-07-29T14:12:39.767Z,80.30
2022-07-29T14:15:08.579Z,78.80
2022-07-29T14:17:36.585Z,80.60
2022-07-29T14:20:05.504Z,80.60
2022-07-29T14:22:36.076Z,81.10
2022-07-29T14:25:14.526Z,83.10
2022-07-29T14:27:43.638Z,82.60
2022-07-29T14:30:12.707Z,85.80
2022-07-29T14:32:40.720Z,88.00
2022-07-29T14:35:09.904Z,88.90
2022-07-29T14:37:40.385Z,89.60
2022-07-29T14:40:11.848Z,90.20
2022-07-29T14:42:40.593Z,91.20
2022-07-29T14:45:10.296Z,92.30
2022-07-29T14:47:39.081Z,93.10
2022-07-29T14:50:08.303Z,93.00
2022-07-29T14:52:36.342Z,93.50
2022-07-29T14:55:05.282Z,93.20
2022-07-29T14:57:45.763Z,93.50
2022-07-29T15:00:14.535Z,94.00
2022-07-29T15:03:00.925Z,91.90
2022-07-29T15:05:30.687Z,87.60
2022-07-29T15:07:58.844Z,84.20
2022-07-29T15:10:27.169Z,85.60
2022-07-29T15:12:57.063Z,82.20
2022-07-29T15:15:25.301Z,77.10
2022-07-29T15:17:53.273Z,76.10
2022-07-29T15:20:22.323Z,76.40
2022-07-29T15:22:50.705Z,74.30
2022-07-29T15:25:18.874Z,74.50
2022-07-29T15:27:52.351Z,73.50
2022-07-29T15:30:32.339Z,70.30
2022-07-29T15:33:02.578Z,71.10
2022-07-29T15:35:31.334Z,70.80
2022-07-29T15:37:59.424Z,67.60
2022-07-29T15:40:27.645Z,70.50
2022-07-29T15:42:56.277Z,66.80
2022-07-29T15:45:25.869Z,71.50
2022-07-29T15:48:00.113Z,69.60
2022-07-29T15:50:28.151Z,70.20
2022-07-29T15:52:56.158Z,68.40
2022-07-29T15:55:24.473Z,70.50
2022-07-29T15:57:56.134Z,67.10
2022-07-29T16:00:28.045Z,70.40
2022-07-29T16:02:56.149Z,67.90
2022-07-29T16:05:24.319Z,68.70
2022-07-29T16:07:52.341Z,69.20
2022-07-29T16:10:20.435Z,68.20
2022-07-29T16:12:48.462Z,67.90
2022-07-29T16:15:16.551Z,69.80
2022-07-29T16:17:45.936Z,69.70
2022-07-29T16:20:14.125Z,69.40
2022-07-29T16:22:42.319Z,72.90
2022-07-29T16:25:11.032Z,75.00
2022-07-29T16:27:39.133Z,76.00
2022-07-29T16:30:09.992Z,78.00
2022-07-29T16:32:38.249Z,76.40
2022-07-29T16:35:09.931Z,76.20
2022-07-29T16:37:41.455Z,76.10
2022-07-29T16:40:11.826Z,75.70
2022-07-29T16:42:48.032Z,75.80
2022-07-29T16:45:17.451Z,76.80
2022-07-29T16:47:46.205Z,76.40
2022-07-29T16:50:15.678Z,76.70
2022-07-29T16:52:43.726Z,77.40
2022-07-29T16:55:11.770Z,78.50
2022-07-29T16:57:39.926Z,77.90
2022-07-29T17:00:09.150Z,78.10
2022-07-29T17:02:38.656Z,79.00
2022-07-29T17:05:07.638Z,78.10
2022-07-29T17:07:37.413Z,78.20
2022-07-29T17:10:08.072Z,79.30
2022-07-29T17:12:36.387Z,79.80
2022-07-29T17:15:05.342Z,79.10
2022-07-29T17:17:38.871Z,79.30
2022-07-29T17:20:22.433Z,80.30
2022-07-29T17:22:51.825Z,81.30
2022-07-29T17:25:20.327Z,81.80
2022-07-29T17:27:50.486Z,82.60
2022-07-29T17:30:18.927Z,82.80
2022-07-29T17:32:46.929Z,83.30
2022-07-29T17:35:32.371Z,83.20
2022-07-29T17:38:01.766Z,83.90
2022-07-29T17:40:29.757Z,85.10
2022-07-29T17:42:57.778Z,84.90
2022-07-29T17:45:26.145Z,83.40
2022-07-29T17:48:14.106Z,83.80
2022-07-29T17:50:42.141Z,84.30
2022-07-29T17:53:16.363Z,84.30
2022-07-29T17:55:45.875Z,85.10
2022-07-29T17:58:14.030Z,85.20
2022-07-29T18:00:42.910Z,87.50
2022-07-29T18:03:11.220Z,87.40
2022-07-29T18:05:39.321Z,87.10
2022-07-29T18:08:07.500Z,87.10
2022-07-29T18:10:37.293Z,88.00
2022-07-29T18:13:05.366Z,89.00
2022-07-29T18:15:33.500Z,90.00
2022-07-29T18:18:01.516Z,91.10
2022-07-29T18:20:29.638Z,92.20
2022-07-29T18:22:57.862Z,93.10
2022-07-29T18:25:26.737Z,93.80
2022-07-29T18:28:00.348Z,94.50
2022-07-29T18:30:29.152Z,95.10
2022-07-29T18:33:19.624Z,95.70
2022-07-29T18:35:45.418Z,96.30
2022-07-29T18:38:13.445Z,97.00
2022-07-29T18:40:42.511Z,97.20
2022-07-29T18:43:12.528Z,97.70
2022-07-29T18:45:40.780Z,98.50
2022-07-29T18:48:13.277Z,98.90
2022-07-29T18:50:42.341Z,99.20
2022-07-29T18:53:10.845Z,99.60
2022-07-29T18:55:38.911Z,99.70
2022-07-29T18:58:07.152Z,99.10
2022-07-29T19:00:36.849Z,98.50
2022-07-29T19:03:05.124Z,98.80
2022-07-29T19:05:33.913Z,98.90
2022-07-29T19:08:02.295Z,99.00
2022-07-29T19:10:30.452Z,99.70
2022-07-29T19:12:58.789Z,99.90
2022-07-29T19:15:28.647Z,99.90
2022-07-29T19:18:01.115Z,99.90
2022-07-29T19:20:29.761Z,99.90
2022-07-29T19:22:58.538Z,99.90
2022-07-29T19:25:26.734Z,99.90
2022-07-29T19:27:54.904Z,99.90
2022-07-29T19:30:24.439Z,99.90
2022-07-29T19:32:52.551Z,99.90
2022-07-29T19:35:32.127Z,99.90
2022-07-29T19:38:02.009Z,99.90
2022-07-29T19:40:30.681Z,99.90
2022-07-29T19:42:59.188Z,99.90
2022-07-29T19:45:28.841Z,99.90
2022-07-29T19:48:01.501Z,99.90
2022-07-29T19:50:32.958Z,99.90
2022-07-29T19:53:01.571Z,99.90
2022-07-29T19:55:29.695Z,99.90
2022-07-29T19:57:58.929Z,99.90
2022-07-29T20:00:28.219Z,99.90
2022-07-29T20:02:57.403Z,99.90
2022-07-29T20:05:28.047Z,99.90
2022-07-29T20:07:57.930Z,99.90
2022-07-29T20:10:26.316Z,99.90
2022-07-29T20:12:55.204Z,99.90
2022-07-29T20:15:24.082Z,99.90
2022-07-29T20:17:56.932Z,99.90
2022-07-29T20:20:26.306Z,99.90
2022-07-29T20:22:54.622Z,99.90
2022-07-29T20:25:24.101Z,99.90
2022-07-29T20:27:53.210Z,99.90
2022-07-29T20:30:22.246Z,99.90
2022-07-29T20:32:51.187Z,99.90
2022-07-29T20:35:19.862Z,99.90
2022-07-29T20:37:52.417Z,99.90
2022-07-29T20:40:26.457Z,99.90
2022-07-29T20:42:54.603Z,99.90
2022-07-29T20:45:23.471Z,99.90
2022-07-29T20:47:52.357Z,99.90
2022-07-29T20:50:23.774Z,99.90
2022-07-29T20:52:52.731Z,99.90
2022-07-29T20:55:22.972Z,99.90
2022-07-29T20:57:52.357Z,99.90
2022-07-29T21:00:20.445Z,99.90
2022-07-29T21:02:48.583Z,99.90
2022-07-29T21:05:16.935Z,99.90
2022-07-29T21:07:44.922Z,99.90
2022-07-29T21:10:14.196Z,99.90
2022-07-29T21:12:42.931Z,99.90
2022-07-29T21:15:13.541Z,99.90
2022-07-29T21:17:46.883Z,99.90
2022-07-29T21:20:15.450Z,99.90
2022-07-29T21:22:43.598Z,99.90
2022-07-29T21:25:11.900Z,99.90
2022-07-29T21:27:57.254Z,99.90
2022-07-29T21:30:26.734Z,99.90
2022-07-29T21:32:54.810Z,99.90
2022-07-29T21:36:01.819Z,99.90
2022-07-29T21:38:10.867Z,99.90
2022-07-29T21:40:39.450Z,99.90
2022-07-29T21:43:07.387Z,99.90
2022-07-29T21:45:36.760Z,99.90
2022-07-29T21:48:05.761Z,99.90
2022-07-29T21:50:34.217Z,99.90
2022-07-29T21:53:02.664Z,99.90
2022-07-29T21:55:32.530Z,99.90
2022-07-29T21:58:00.621Z,99.90
2022-07-29T22:00:28.776Z,99.90
2022-07-29T22:02:58.610Z,99.90
2022-07-29T22:05:26.717Z,99.90
2022-07-29T22:07:56.541Z,99.90
2022-07-29T22:10:25.885Z,99.90
2022-07-29T22:12:54.481Z,99.90
2022-07-29T22:15:22.718Z,99.90
2022-07-29T22:17:51.493Z,99.90
2022-07-29T22:20:21.237Z,99.90
2022-07-29T22:22:49.294Z,99.90
2022-07-29T22:25:17.895Z,99.90
2022-07-29T22:27:46.349Z,99.90
2022-07-29T22:30:15.248Z,99.90
2022-07-29T22:32:43.715Z,99.90
2022-07-29T22:35:12.292Z,99.90
2022-07-29T22:37:41.696Z,99.90
2022-07-29T22:40:10.373Z,99.90
2022-07-29T22:42:40.634Z,99.90
2022-07-29T22:45:10.522Z,99.90
2022-07-29T22:47:46.397Z,99.90
2022-07-29T22:50:16.981Z,99.90
2022-07-29T22:52:46.326Z,99.90
2022-07-29T22:55:15.016Z,99.90
2022-07-29T22:57:43.205Z,99.90
2022-07-29T23:00:12.513Z,99.90
2022-07-29T23:02:41.469Z,99.90
2022-07-29T23:05:10.729Z,99.90
2022-07-29T23:07:38.798Z,99.90
2022-07-29T23:10:09.747Z,99.90
2022-07-29T23:12:37.904Z,99.90
2022-07-29T23:15:06.589Z,99.90
2022-07-29T23:17:36.577Z,99.90
2022-07-29T23:20:07.552Z,99.90
2022-07-29T23:22:35.710Z,99.90
2022-07-29T23:25:03.840Z,99.90
2022-07-29T23:27:33.236Z,99.90
2022-07-29T23:30:01.257Z,99.90
2022-07-29T23:32:29.256Z,99.90
2022-07-29T23:34:57.270Z,99.90
2022-07-29T23:37:27.056Z,99.90
2022-07-29T23:39:55.302Z,99.90
2022-07-29T23:42:23.403Z,99.90
2022-07-29T23:44:53.286Z,99.90
2022-07-29T23:47:21.547Z,99.90
2022-07-29T23:49:50.220Z,99.90
2022-07-29T23:52:19.032Z,99.90
2022-07-29T23:54:47.278Z,99.90
2022-07-29T23:57:15.909Z,99.90
2022-07-29T23:59:44.158Z,99.90
